createdAt,value
2022-10-19T00:02:25.164Z,13.50
2022-10-19T00:04:51.881Z,13.40
2022-10-19T00:07:18.740Z,13.40
2022-10-19T00:09:46.040Z,13.40
2022-10-19T00:12:13.215Z,13.50
2022-10-19T00:14:40.153Z,13.50
2022-10-19T00:17:07.141Z,13.40
2022-10-19T00:19:33.971Z,13.40
2022-10-19T00:22:00.781Z,13.40
2022-10-19T00:24:27.604Z,13.40
2022-10-19T00:26:54.280Z,13.40
2022-10-19T00:29:21.194Z,13.40
2022-10-19T00:31:50.361Z,13.40
2022-10-19T00:34:17.500Z,13.40
2022-10-19T00:36:44.348Z,13.30
2022-10-19T00:39:12.951Z,13.30
2022-10-19T00:41:40.090Z,13.30
2022-10-19T00:44:27.968Z,13.30
2022-10-19T00:46:55.076Z,13.30
2022-10-19T00:49:30.446Z,13.30
2022-10-19T00:51:58.465Z,13.30
2022-10-19T00:54:25.342Z,13.30
2022-10-19T00:56:53.454Z,13.30
2022-10-19T00:59:21.684Z,13.30
2022-10-19T01:01:48.592Z,13.30
2022-10-19T01:04:15.503Z,13.30
2022-10-19T01:06:42.399Z,13.30
2022-10-19T01:09:09.310Z,13.20
2022-10-19T01:11:50.662Z,13.30
2022-10-19T01:14:28.889Z,13.20
2022-10-19T01:16:56.406Z,13.30
2022-10-19T01:19:50.848Z,13.30
2022-10-19T01:22:52.725Z,13.30
2022-10-19T01:25:47.062Z,13.20
2022-10-19T01:28:58.469Z,13.20
2022-10-19T01:31:47.298Z,13.20
2022-10-19T01:34:29.456Z,13.20
2022-10-19T01:37:14.602Z,13.20
2022-10-19T01:39:49.890Z,13.20
2022-10-19T01:42:22.928Z,13.20
2022-10-19T01:45:01.444Z,13.20
2022-10-19T01:47:45.901Z,13.10
2022-10-19T01:50:16.544Z,13.10
2022-10-19T01:52:43.336Z,13.10
2022-10-19T01:55:11.571Z,13.20
2022-10-19T01:57:43.701Z,13.20
2022-10-19T02:00:11.589Z,13.20
2022-10-19T02:02:46.055Z,13.20
2022-10-19T02:05:12.849Z,13.20
2022-10-19T02:07:41.204Z,13.30
2022-10-19T02:10:08.437Z,13.30
2022-10-19T02:12:35.702Z,13.20
2022-10-19T02:15:06.432Z,13.20
2022-10-19T02:17:34.419Z,13.20
2022-10-19T02:20:01.395Z,13.20
2022-10-19T02:22:28.276Z,13.20
2022-10-19T02:24:55.021Z,13.20
2022-10-19T02:27:21.775Z,13.20
2022-10-19T02:29:48.804Z,13.30
2022-10-19T02:32:15.514Z,13.20
2022-10-19T02:34:42.144Z,13.20
2022-10-19T02:37:09.139Z,13.30
2022-10-19T02:39:35.911Z,13.20
2022-10-19T02:42:18.698Z,13.20
2022-10-19T02:45:28.167Z,13.10
2022-10-19T02:48:02.683Z,13.10
2022-10-19T02:50:29.339Z,13.20
2022-10-19T02:52:57.149Z,13.20
2022-10-19T02:55:24.010Z,13.20
2022-10-19T02:57:50.692Z,13.20
2022-10-19T03:00:17.749Z,13.20
2022-10-19T03:02:44.467Z,13.20
2022-10-19T03:05:11.168Z,13.20
2022-10-19T03:07:37.978Z,13.20
2022-10-19T03:10:05.084Z,13.30
2022-10-19T03:12:32.068Z,13.20
2022-10-19T03:14:58.995Z,13.20
2022-10-19T03:17:25.893Z,13.20
2022-10-19T03:19:52.959Z,13.30
2022-10-19T03:22:19.845Z,13.30
2022-10-19T03:24:46.665Z,13.30
2022-10-19T03:27:13.475Z,13.30
2022-10-19T03:29:40.183Z,13.30
2022-10-19T03:32:07.150Z,13.20
2022-10-19T03:34:37.092Z,13.20
2022-10-19T03:37:03.908Z,13.20
2022-10-19T03:39:30.700Z,13.20
2022-10-19T03:41:57.541Z,13.10
2022-10-19T03:44:24.315Z,13.10
2022-10-19T03:46:50.937Z,13.20
2022-10-19T03:49:17.588Z,13.20
2022-10-19T03:51:44.439Z,13.20
2022-10-19T03:54:15.037Z,13.10
2022-10-19T03:56:45.916Z,13.20
2022-10-19T03:59:14.372Z,13.20
2022-10-19T04:01:42.858Z,13.10
2022-10-19T04:04:16.888Z,13.20
2022-10-19T04:06:44.938Z,13.20
2022-10-19T04:09:13.183Z,13.20
2022-10-19T04:11:40.104Z,13.20
2022-10-19T04:14:07.067Z,13.20
2022-10-19T04:16:42.111Z,13.20
2022-10-19T04:19:09.117Z,13.20
2022-10-19T04:21:37.359Z,13.20
2022-10-19T04:24:06.333Z,13.20
2022-10-19T04:26:33.451Z,13.20
2022-10-19T04:29:01.562Z,13.20
2022-10-19T04:31:28.434Z,13.20
2022-10-19T04:33:55.305Z,13.20
2022-10-19T04:36:22.072Z,13.20
2022-10-19T04:38:48.977Z,13.20
2022-10-19T04:41:17.316Z,13.20
2022-10-19T04:43:46.870Z,13.10
2022-10-19T04:46:19.382Z,13.20
2022-10-19T04:48:46.831Z,13.10
2022-10-19T04:51:15.869Z,13.10
2022-10-19T04:53:42.737Z,13.10
2022-10-19T04:56:23.030Z,13.10
2022-10-19T04:58:49.882Z,13.10
2022-10-19T05:01:18.371Z,13.00
2022-10-19T05:03:45.614Z,13.10
2022-10-19T05:06:12.730Z,13.10
2022-10-19T05:08:39.529Z,13.10
2022-10-19T05:11:09.128Z,13.10
2022-10-19T05:13:42.310Z,13.00
2022-10-19T05:16:11.839Z,13.00
2022-10-19T05:18:38.747Z,13.00
2022-10-19T05:21:10.180Z,13.00
2022-10-19T05:23:40.332Z,13.10
2022-10-19T05:26:12.414Z,13.00
2022-10-19T05:28:39.215Z,13.00
2022-10-19T05:31:10.779Z,13.00
2022-10-19T05:33:37.767Z,13.00
2022-10-19T05:36:16.156Z,13.00
2022-10-19T05:38:43.894Z,13.00
2022-10-19T05:41:10.652Z,13.00
2022-10-19T05:43:37.384Z,12.90
2022-10-19T05:46:08.924Z,13.00
2022-10-19T05:48:35.984Z,13.00
2022-10-19T05:51:03.273Z,13.00
2022-10-19T05:53:30.201Z,13.00
2022-10-19T05:56:01.300Z,12.90
2022-10-19T05:58:28.138Z,12.90
2022-10-19T06:00:55.702Z,12.90
2022-10-19T06:03:22.842Z,13.00
2022-10-19T06:05:50.011Z,13.00
2022-10-19T06:08:20.510Z,13.00
2022-10-19T06:10:48.372Z,13.00
2022-10-19T06:13:17.416Z,13.00
2022-10-19T06:15:44.252Z,13.00
2022-10-19T06:18:11.483Z,13.00
2022-10-19T06:20:39.122Z,13.00
2022-10-19T06:23:06.022Z,12.90
2022-10-19T06:25:33.472Z,12.90
2022-10-19T06:28:00.631Z,12.90
2022-10-19T06:30:27.677Z,12.90
2022-10-19T06:32:54.457Z,12.90
2022-10-19T06:35:21.234Z,12.90
2022-10-19T06:37:47.875Z,12.90
2022-10-19T06:40:14.648Z,13.00
2022-10-19T06:42:41.338Z,13.00
2022-10-19T06:45:11.200Z,13.00
2022-10-19T06:47:38.634Z,13.10
2022-10-19T06:50:06.508Z,13.10
2022-10-19T06:52:34.434Z,13.10
2022-10-19T06:55:01.755Z,13.10
2022-10-19T06:57:28.642Z,13.10
2022-10-19T06:59:55.651Z,13.10
2022-10-19T07:02:22.456Z,13.10
2022-10-19T07:04:49.292Z,13.10
2022-10-19T07:07:15.961Z,13.00
2022-10-19T07:09:42.624Z,13.10
2022-10-19T07:12:10.994Z,13.10
2022-10-19T07:14:39.673Z,13.10
2022-10-19T07:17:06.989Z,13.20
2022-10-19T07:19:33.946Z,13.20
2022-10-19T07:22:07.095Z,13.20
2022-10-19T07:24:33.992Z,13.20
2022-10-19T07:27:00.956Z,13.10
2022-10-19T07:29:29.673Z,13.10
2022-10-19T07:31:56.340Z,13.20
2022-10-19T07:34:25.433Z,13.20
2022-10-19T07:36:55.037Z,13.30
2022-10-19T07:39:21.755Z,13.30
2022-10-19T07:41:48.700Z,13.30
2022-10-19T07:44:15.939Z,13.30
2022-10-19T07:46:47.871Z,13.40
2022-10-19T07:49:16.419Z,13.30
2022-10-19T07:51:43.213Z,13.30
2022-10-19T07:54:11.845Z,13.30
2022-10-19T07:56:38.712Z,13.30
2022-10-19T07:59:05.928Z,13.30
2022-10-19T08:01:35.124Z,13.30
2022-10-19T08:06:48.798Z,13.40
2022-10-19T08:09:33.359Z,13.40
2022-10-19T08:12:02.356Z,13.40
2022-10-19T08:14:29.224Z,13.40
2022-10-19T08:16:55.962Z,13.40
2022-10-19T08:19:22.905Z,13.40
2022-10-19T08:21:49.816Z,13.40
2022-10-19T08:24:20.083Z,13.40
2022-10-19T08:26:46.820Z,13.40
2022-10-19T08:29:15.532Z,13.40
2022-10-19T08:31:42.874Z,13.40
2022-10-19T08:34:10.878Z,13.40
2022-10-19T08:36:37.618Z,13.40
2022-10-19T08:39:05.689Z,13.40
2022-10-19T08:44:30.820Z,13.40
2022-10-19T08:47:26.838Z,13.40
2022-10-19T08:49:53.518Z,13.50
2022-10-19T08:52:22.669Z,13.40
2022-10-19T08:55:07.458Z,13.50
2022-10-19T08:57:54.124Z,13.40
2022-10-19T09:03:37.732Z,13.50
2022-10-19T09:06:22.463Z,13.60
2022-10-19T09:08:51.179Z,13.60
2022-10-19T09:11:20.857Z,13.60
2022-10-19T09:14:05.925Z,13.60
2022-10-19T09:16:34.759Z,13.60
2022-10-19T09:19:02.297Z,13.60
2022-10-19T09:21:46.079Z,13.70
2022-10-19T09:24:36.584Z,13.80
2022-10-19T09:27:04.195Z,13.80
2022-10-19T09:29:52.167Z,13.80
2022-10-19T09:32:22.071Z,13.80
2022-10-19T09:34:51.772Z,13.90
2022-10-19T09:37:25.735Z,13.90
2022-10-19T09:39:55.819Z,14.00
2022-10-19T09:42:30.488Z,14.00
2022-10-19T09:44:58.596Z,14.00
2022-10-19T09:47:34.567Z,14.00
2022-10-19T09:50:14.626Z,14.10
2022-10-19T09:52:41.892Z,14.20
2022-10-19T09:55:14.841Z,14.20
2022-10-19T09:57:45.462Z,14.30
2022-10-19T10:00:19.540Z,14.40
2022-10-19T10:02:51.062Z,14.50
2022-10-19T10:05:18.101Z,14.50
2022-10-19T10:07:44.873Z,14.50
2022-10-19T10:10:22.539Z,14.50
2022-10-19T10:12:52.488Z,14.60
2022-10-19T10:15:24.374Z,14.70
2022-10-19T10:17:52.261Z,14.80
2022-10-19T10:20:30.517Z,14.70
2022-10-19T10:22:59.474Z,14.80
2022-10-19T10:25:28.666Z,14.80
2022-10-19T10:28:00.991Z,14.90
2022-10-19T10:30:33.184Z,14.90
2022-10-19T10:33:08.129Z,14.90
2022-10-19T10:35:49.919Z,15.10
2022-10-19T10:38:18.378Z,15.10
2022-10-19T10:40:52.838Z,15.10
2022-10-19T10:43:21.266Z,15.20
2022-10-19T10:45:53.099Z,15.20
2022-10-19T10:48:28.945Z,15.20
2022-10-19T10:50:56.414Z,15.20
2022-10-19T10:53:40.538Z,15.20
2022-10-19T10:56:26.140Z,15.30
2022-10-19T10:59:00.932Z,15.30
2022-10-19T11:01:35.088Z,15.40
2022-10-19T11:04:22.775Z,15.40
2022-10-19T11:06:53.482Z,15.40
2022-10-19T11:09:38.595Z,15.50
2022-10-19T11:12:06.369Z,15.50
2022-10-19T11:14:36.576Z,15.60
2022-10-19T11:17:07.908Z,15.50
2022-10-19T11:19:41.351Z,15.60
2022-10-19T11:22:30.007Z,15.60
2022-10-19T11:25:35.671Z,15.60
2022-10-19T11:28:12.454Z,15.50
2022-10-19T11:30:54.951Z,15.60
2022-10-19T11:33:44.417Z,15.70
2022-10-19T11:36:28.262Z,15.60
2022-10-19T11:39:23.482Z,15.70
2022-10-19T11:42:08.749Z,15.70
2022-10-19T11:44:47.904Z,15.70
2022-10-19T11:47:43.263Z,15.70
2022-10-19T11:50:32.833Z,15.70
2022-10-19T11:53:08.678Z,15.70
2022-10-19T11:56:00.182Z,15.70
2022-10-19T11:58:35.356Z,15.80
2022-10-19T12:01:17.375Z,15.70
2022-10-19T12:03:59.935Z,15.80
2022-10-19T12:06:44.772Z,15.90
2022-10-19T12:09:28.227Z,15.90
2022-10-19T12:12:16.124Z,15.90
2022-10-19T12:14:43.437Z,16.00
2022-10-19T12:17:24.386Z,16.10
2022-10-19T12:19:54.139Z,16.10
2022-10-19T12:22:25.179Z,16.00
2022-10-19T12:24:55.520Z,16.10
2022-10-19T12:27:37.248Z,16.60
2022-10-19T12:30:16.371Z,16.80
2022-10-19T12:33:08.243Z,16.70
2022-10-19T12:35:48.053Z,16.40
2022-10-19T12:38:23.577Z,16.40
2022-10-19T12:40:58.580Z,16.50
2022-10-19T12:43:50.017Z,16.50
2022-10-19T12:46:53.150Z,16.50
2022-10-19T12:49:30.717Z,16.60
2022-10-19T12:51:58.476Z,16.70
2022-10-19T12:54:26.557Z,16.80
2022-10-19T12:56:54.646Z,16.90
2022-10-19T12:59:32.572Z,17.10
2022-10-19T13:01:59.800Z,17.10
2022-10-19T13:04:31.472Z,17.00
2022-10-19T13:06:58.231Z,17.00
2022-10-19T13:09:27.204Z,17.00
2022-10-19T13:12:19.604Z,17.00
2022-10-19T13:14:50.233Z,16.90
2022-10-19T13:17:40.642Z,17.00
2022-10-19T13:20:13.647Z,16.90
2022-10-19T13:23:13.340Z,16.80
2022-10-19T13:25:40.751Z,16.90
2022-10-19T13:28:07.520Z,16.90
2022-10-19T13:30:41.895Z,17.00
2022-10-19T13:33:33.571Z,17.10
2022-10-19T13:36:00.299Z,17.20
2022-10-19T13:39:00.773Z,17.30
2022-10-19T13:41:28.961Z,17.50
2022-10-19T13:44:18.861Z,17.80
2022-10-19T13:46:54.345Z,17.80
2022-10-19T13:49:41.683Z,17.80
2022-10-19T13:52:42.488Z,17.60
2022-10-19T13:55:31.011Z,17.50
2022-10-19T13:58:29.196Z,17.50
2022-10-19T14:01:06.469Z,17.50
2022-10-19T14:03:59.921Z,17.60
2022-10-19T14:07:05.629Z,17.70
2022-10-19T14:09:52.768Z,17.80
2022-10-19T14:12:23.747Z,17.80
2022-10-19T14:14:53.557Z,17.70
2022-10-19T14:17:24.307Z,17.70
2022-10-19T14:19:56.846Z,17.70
2022-10-19T14:22:30.267Z,17.70
2022-10-19T14:25:21.443Z,17.70
2022-10-19T14:27:49.845Z,17.70
2022-10-19T14:30:23.275Z,17.60
2022-10-19T14:32:50.246Z,17.50
2022-10-19T14:35:24.053Z,17.40
2022-10-19T14:37:50.839Z,17.30
2022-10-19T14:40:28.264Z,17.30
2022-10-19T14:42:56.765Z,17.30
2022-10-19T14:45:32.953Z,17.30
2022-10-19T14:48:06.059Z,17.20
2022-10-19T14:50:42.965Z,17.20
2022-10-19T14:53:30.299Z,17.10
2022-10-19T14:55:58.485Z,17.10
2022-10-19T14:58:26.546Z,17.10
2022-10-19T15:00:53.341Z,17.00
2022-10-19T15:03:24.562Z,16.90
2022-10-19T15:05:54.516Z,16.90
2022-10-19T15:08:34.771Z,16.80
2022-10-19T15:11:01.692Z,16.70
2022-10-19T15:13:33.435Z,16.70
2022-10-19T15:16:01.566Z,16.70
2022-10-19T15:18:49.335Z,16.60
2022-10-19T15:21:22.991Z,16.60
2022-10-19T15:23:52.873Z,16.50
2022-10-19T15:26:20.945Z,16.50
2022-10-19T15:28:48.407Z,16.50
2022-10-19T15:31:17.961Z,16.40
2022-10-19T15:33:52.824Z,16.40
2022-10-19T15:36:20.743Z,16.30
2022-10-19T15:38:48.690Z,16.30
2022-10-19T15:41:40.569Z,16.20
2022-10-19T15:44:32.238Z,16.20
2022-10-19T15:47:20.890Z,16.10
2022-10-19T15:49:58.368Z,16.10
2022-10-19T15:52:28.622Z,16.00
2022-10-19T15:54:56.905Z,15.90
2022-10-19T15:57:36.446Z,15.90
2022-10-19T16:00:13.280Z,15.80
2022-10-19T16:02:40.029Z,15.80
2022-10-19T16:05:07.960Z,15.70
2022-10-19T16:07:36.737Z,15.70
2022-10-19T16:10:03.952Z,15.60
2022-10-19T16:12:31.773Z,15.60
2022-10-19T16:14:58.431Z,15.50
2022-10-19T16:17:25.302Z,15.40
2022-10-19T16:19:53.051Z,15.40
2022-10-19T16:22:19.803Z,15.40
2022-10-19T16:24:46.760Z,15.30
2022-10-19T16:27:16.199Z,15.30
2022-10-19T16:29:44.107Z,15.20
2022-10-19T16:32:18.133Z,15.20
2022-10-19T16:34:45.093Z,15.10
2022-10-19T16:37:11.932Z,15.00
2022-10-19T16:39:43.797Z,14.90
2022-10-19T16:42:11.834Z,14.90
2022-10-19T16:44:38.689Z,14.90
2022-10-19T16:47:05.897Z,14.80
2022-10-19T16:49:35.990Z,14.80
2022-10-19T16:52:03.072Z,14.70
2022-10-19T16:54:30.547Z,14.70
2022-10-19T16:56:57.297Z,14.60
2022-10-19T16:59:24.768Z,14.60
2022-10-19T17:01:51.798Z,14.50
2022-10-19T17:04:18.727Z,14.50
2022-10-19T17:06:45.737Z,14.40
2022-10-19T17:11:59.188Z,14.30
2022-10-19T17:14:27.073Z,14.30
2022-10-19T17:16:53.916Z,14.30
2022-10-19T17:19:20.738Z,14.30
2022-10-19T17:21:49.398Z,14.30
2022-10-19T17:24:21.718Z,14.30
2022-10-19T17:27:00.218Z,14.20
2022-10-19T17:29:26.963Z,14.20
2022-10-19T17:31:53.656Z,14.10
2022-10-19T17:34:20.442Z,14.10
2022-10-19T17:36:47.377Z,14.10
2022-10-19T17:39:17.848Z,14.00
2022-10-19T17:41:45.461Z,14.00
2022-10-19T17:44:12.321Z,14.10
2022-10-19T17:46:39.317Z,14.00
2022-10-19T17:49:06.080Z,14.00
2022-10-19T17:51:33.779Z,14.00
2022-10-19T17:54:01.988Z,14.00
2022-10-19T17:56:47.669Z,14.00
2022-10-19T17:59:15.006Z,13.90
2022-10-19T18:01:41.809Z,13.90
2022-10-19T18:04:08.540Z,13.90
2022-10-19T18:06:36.155Z,13.80
2022-10-19T18:09:06.886Z,13.80
2022-10-19T18:11:39.331Z,13.80
2022-10-19T18:14:09.429Z,13.80
2022-10-19T18:16:40.811Z,13.70
2022-10-19T18:19:07.753Z,13.70
2022-10-19T18:21:44.010Z,13.60
2022-10-19T18:24:19.519Z,13.60
2022-10-19T18:26:46.674Z,13.60
2022-10-19T18:29:24.313Z,13.60
2022-10-19T18:31:53.955Z,13.70
2022-10-19T18:34:25.517Z,13.60
2022-10-19T18:36:54.703Z,13.70
2022-10-19T18:39:21.459Z,13.60
2022-10-19T18:41:52.182Z,13.60
2022-10-19T18:44:23.642Z,13.60
2022-10-19T18:46:54.049Z,13.60
2022-10-19T18:49:20.819Z,13.60
2022-10-19T18:51:52.359Z,13.60
2022-10-19T18:54:22.035Z,13.50
2022-10-19T18:56:49.786Z,13.50
2022-10-19T18:59:16.649Z,13.50
2022-10-19T19:01:43.592Z,13.50
2022-10-19T19:04:10.435Z,13.60
2022-10-19T19:06:37.398Z,13.50
2022-10-19T19:09:12.411Z,13.50
2022-10-19T19:11:40.732Z,13.60
2022-10-19T19:14:15.330Z,13.50
2022-10-19T19:16:42.561Z,13.50
2022-10-19T19:19:11.456Z,13.50
2022-10-19T19:21:43.567Z,13.50
2022-10-19T19:24:11.580Z,13.50
2022-10-19T19:26:39.194Z,13.50
2022-10-19T19:29:12.589Z,13.50
2022-10-19T19:31:39.455Z,13.50
2022-10-19T19:34:07.860Z,13.50
2022-10-19T19:36:34.823Z,13.50
2022-10-19T19:39:02.393Z,13.40
2022-10-19T19:41:30.665Z,13.40
2022-10-19T19:44:01.552Z,13.40
2022-10-19T19:46:28.259Z,13.40
2022-10-19T19:49:02.194Z,13.30
2022-10-19T19:51:31.545Z,13.40
2022-10-19T19:54:00.508Z,13.30
2022-10-19T19:56:28.668Z,13.30
2022-10-19T19:58:56.741Z,13.30
2022-10-19T20:01:23.799Z,13.30
2022-10-19T20:03:51.646Z,13.30
2022-10-19T20:06:22.065Z,13.30
2022-10-19T20:08:56.435Z,13.30
2022-10-19T20:11:24.326Z,13.30
2022-10-19T20:13:51.145Z,13.40
2022-10-19T20:16:23.862Z,13.30
2022-10-19T20:19:14.764Z,13.30
2022-10-19T20:21:41.734Z,13.30
2022-10-19T20:24:08.754Z,13.30
2022-10-19T20:26:42.684Z,13.30
2022-10-19T20:29:10.360Z,13.30
2022-10-19T20:31:40.253Z,13.30
2022-10-19T20:34:10.851Z,13.30
2022-10-19T20:36:37.929Z,13.30
2022-10-19T20:39:04.806Z,13.30
2022-10-19T20:41:31.688Z,13.30
2022-10-19T20:43:58.420Z,13.30
2022-10-19T20:46:29.376Z,13.30
2022-10-19T20:48:59.481Z,13.30
2022-10-19T20:51:31.661Z,13.20
2022-10-19T20:54:00.131Z,13.30
2022-10-19T20:56:28.769Z,13.30
2022-10-19T20:59:00.033Z,13.30
2022-10-19T21:01:30.204Z,13.20
2022-10-19T21:03:58.488Z,13.30
2022-10-19T21:06:25.878Z,13.30
2022-10-19T21:08:53.050Z,13.20
2022-10-19T21:11:25.363Z,13.30
2022-10-19T21:13:56.290Z,13.20
2022-10-19T21:16:27.467Z,13.30
2022-10-19T21:18:54.495Z,13.30
2022-10-19T21:21:27.157Z,13.40
2022-10-19T21:23:58.632Z,13.40
2022-10-19T21:26:26.807Z,13.40
2022-10-19T21:28:53.696Z,13.30
2022-10-19T21:31:21.115Z,13.30
2022-10-19T21:33:47.991Z,13.30
2022-10-19T21:36:14.815Z,13.30
2022-10-19T21:38:42.072Z,13.20
2022-10-19T21:41:15.677Z,13.20
2022-10-19T21:43:42.560Z,13.20
2022-10-19T21:46:12.364Z,13.20
2022-10-19T21:48:39.485Z,13.10
2022-10-19T21:51:45.175Z,13.10
2022-10-19T21:54:14.604Z,13.10
2022-10-19T21:56:41.383Z,13.00
2022-10-19T21:59:08.528Z,13.00
2022-10-19T22:01:38.675Z,13.00
2022-10-19T22:04:12.180Z,12.90
2022-10-19T22:06:39.188Z,12.90
2022-10-19T22:09:06.704Z,12.90
2022-10-19T22:11:33.552Z,12.90
2022-10-19T22:14:01.115Z,12.90
2022-10-19T22:16:28.684Z,12.90
2022-10-19T22:18:55.676Z,12.90
2022-10-19T22:21:24.412Z,12.90
2022-10-19T22:23:56.109Z,12.90
2022-10-19T22:26:30.725Z,13.00
2022-10-19T22:28:58.012Z,13.00
2022-10-19T22:31:25.169Z,13.00
2022-10-19T22:33:52.173Z,13.00
2022-10-19T22:36:18.912Z,13.00
2022-10-19T22:38:45.860Z,13.00
2022-10-19T22:41:12.988Z,13.00
2022-10-19T22:43:39.717Z,13.00
2022-10-19T22:46:06.592Z,13.00
2022-10-19T22:48:33.331Z,13.00
2022-10-19T22:51:00.253Z,12.90
2022-10-19T22:53:26.971Z,12.90
2022-10-19T22:55:53.996Z,12.90
2022-10-19T22:58:20.867Z,12.90
2022-10-19T23:01:01.572Z,12.90
2022-10-19T23:03:28.603Z,12.90
2022-10-19T23:05:55.311Z,12.90
2022-10-19T23:08:22.146Z,12.90
2022-10-19T23:10:48.921Z,12.90
2022-10-19T23:13:15.907Z,12.90
2022-10-19T23:15:44.035Z,12.80
2022-10-19T23:18:11.383Z,12.90
2022-10-19T23:20:38.103Z,12.90
2022-10-19T23:23:05.119Z,12.90
2022-10-19T23:27:58.667Z,12.80
2022-10-19T23:30:25.360Z,12.80
2022-10-19T23:32:52.262Z,12.80
2022-10-19T23:35:19.168Z,12.80
2022-10-19T23:37:45.904Z,12.80
2022-10-19T23:40:12.908Z,12.80
2022-10-19T23:42:39.563Z,12.80
2022-10-19T23:45:06.810Z,12.90
2022-10-19T23:47:33.863Z,12.90
2022-10-19T23:50:00.735Z,12.90
2022-10-19T23:52:27.604Z,12.90
2022-10-19T23:54:54.352Z,12.90
2022-10-19T23:57:21.287Z,12.90
2022-10-19T23:59:48.005Z,12.90
